KAWM/AWM METAR and TAF weather

Enter ICAO airport designator
Station Type Date Time Source
KAWM METAR 2018/09/21 23:02 UTC NOAA

KAWM 212302Z AUTO 24003KT 1 1/2SM HZ SCT110 27/22 A3000 RMK AO2 LTG DSNT S AND SW T02720217


Station Type Date Time Source
KAWM Decoded METAR 2018/09/21 23:02 UTC NOAA

WEST MEMPHIS MUNICIPAL AIRPORT, AR, United States (KAWM) 35-08N 090-14W
Sep 21, 2018 - 07:02 PM EDT / 2018.09.21 2302 UTC
Wind: from the WSW (240 degrees) at 3 MPH (3 KT):0
Visibility: 1 1/2 mile(s):0
Sky conditions: partly cloudy
Weather: haze; Lightning observed
Temperature: 81.0 F (27.2 C)
Dew Point: 71.1 F (21.7 C)
Relative Humidity: 71%
Pressure (altimeter): 30 in. Hg (1015 hPa)
ob: KAWM 212302Z AUTO 24003KT 1 1/2SM HZ SCT110 27/22 A3000 RMK AO2 LTG DSNT S AND SW T02720217
cycle: 23

Station Type Date Time Source
KAWM TAF UTC NOAA

Error!


Example: see airport list